createdAt,value
2023-01-06T00:00:48.978Z,0.00
2023-01-06T00:01:49.028Z,0.00
2023-01-06T00:02:49.048Z,0.00
2023-01-06T00:03:48.844Z,0.00
2023-01-06T00:04:48.842Z,0.00
2023-01-06T00:05:48.860Z,0.00
2023-01-06T00:06:48.805Z,0.00
2023-01-06T00:07:48.829Z,0.00
2023-01-06T00:08:48.794Z,0.00
2023-01-06T00:09:48.814Z,0.00
2023-01-06T00:10:48.999Z,0.00
2023-01-06T00:11:49.007Z,0.00
2023-01-06T00:12:48.779Z,0.00
2023-01-06T00:13:48.778Z,0.00
2023-01-06T00:14:48.728Z,0.00
2023-01-06T00:15:48.756Z,0.00
2023-01-06T00:16:48.701Z,0.00
2023-01-06T00:17:48.830Z,0.00
2023-01-06T00:18:48.701Z,0.00
2023-01-06T00:19:48.739Z,0.00
2023-01-06T00:20:48.693Z,0.00
2023-01-06T00:21:48.659Z,0.00
2023-01-06T00:22:48.666Z,0.00
2023-01-06T00:23:48.634Z,0.00
2023-01-06T00:24:48.646Z,0.00
2023-01-06T00:25:48.677Z,0.00
2023-01-06T00:26:48.596Z,0.00
2023-01-06T00:27:48.612Z,0.00
2023-01-06T00:28:48.590Z,0.00
2023-01-06T00:29:48.584Z,0.00
2023-01-06T00:30:48.663Z,0.00
2023-01-06T00:31:48.563Z,0.00
2023-01-06T00:32:48.528Z,0.00
2023-01-06T00:33:48.632Z,0.00
2023-01-06T00:34:48.525Z,0.00
2023-01-06T00:35:48.491Z,0.00
2023-01-06T00:36:48.497Z,0.00
2023-01-06T00:37:48.489Z,0.00
2023-01-06T00:38:48.540Z,0.00
2023-01-06T00:39:48.488Z,0.00
2023-01-06T00:40:48.451Z,0.00
2023-01-06T00:41:48.648Z,0.00
2023-01-06T00:42:48.428Z,0.00
2023-01-06T00:43:48.438Z,0.00
2023-01-06T00:44:48.645Z,0.00
2023-01-06T00:45:48.408Z,0.00
2023-01-06T00:46:48.408Z,0.00
2023-01-06T00:47:48.383Z,0.00
2023-01-06T00:49:03.927Z,0.00
2023-01-06T00:49:48.491Z,0.00
2023-01-06T00:50:48.342Z,0.00
2023-01-06T00:51:48.347Z,0.00
2023-01-06T00:52:48.379Z,0.00
2023-01-06T00:53:48.319Z,0.00
2023-01-06T00:54:48.327Z,0.00
2023-01-06T00:55:48.291Z,0.00
2023-01-06T00:56:48.502Z,0.00
2023-01-06T00:57:48.278Z,0.00
2023-01-06T00:58:48.299Z,0.00
2023-01-06T00:59:48.263Z,0.00
2023-01-06T01:00:48.287Z,0.00
2023-01-06T01:01:48.351Z,0.00
2023-01-06T01:02:48.259Z,0.00
2023-01-06T01:03:48.229Z,0.00
2023-01-06T01:04:48.406Z,0.00
2023-01-06T01:05:48.290Z,0.00
2023-01-06T01:06:48.200Z,0.00
2023-01-06T01:07:48.215Z,0.00
2023-01-06T01:08:48.387Z,0.00
2023-01-06T01:09:48.197Z,0.00
2023-01-06T01:10:48.137Z,0.00
2023-01-06T01:11:48.145Z,0.00
2023-01-06T01:12:48.117Z,0.00
2023-01-06T01:13:48.107Z,0.00
2023-01-06T01:14:48.110Z,0.00
2023-01-06T01:15:48.103Z,0.00
2023-01-06T01:16:48.115Z,0.00
2023-01-06T01:17:48.064Z,0.00
2023-01-06T01:18:48.080Z,0.00
2023-01-06T01:19:48.082Z,0.00
2023-01-06T01:20:48.044Z,0.00
2023-01-06T01:21:48.161Z,0.00
2023-01-06T01:22:48.026Z,0.00
2023-01-06T01:23:48.069Z,0.00
2023-01-06T01:24:48.028Z,0.00
2023-01-06T01:25:47.969Z,0.00
2023-01-06T01:26:47.967Z,0.00
2023-01-06T01:27:47.959Z,0.00
2023-01-06T01:28:47.961Z,0.00
2023-01-06T01:29:47.949Z,0.00
2023-01-06T01:30:47.995Z,0.00
2023-01-06T01:31:48.106Z,0.00
2023-01-06T01:32:47.893Z,0.00
2023-01-06T01:33:47.879Z,0.00
2023-01-06T01:34:47.861Z,0.00
2023-01-06T01:35:48.050Z,0.00
2023-01-06T01:36:47.865Z,0.00
2023-01-06T01:37:47.978Z,0.00
2023-01-06T01:38:47.847Z,0.00
2023-01-06T01:39:47.845Z,0.00
2023-01-06T01:40:47.825Z,0.00
2023-01-06T01:41:47.809Z,0.00
2023-01-06T01:42:47.773Z,0.00
2023-01-06T01:43:47.767Z,0.00
2023-01-06T01:44:47.795Z,0.00
2023-01-06T01:45:47.769Z,0.00
2023-01-06T01:46:47.758Z,0.00
2023-01-06T01:47:47.745Z,0.00
2023-01-06T01:48:47.731Z,0.00
2023-01-06T01:49:47.706Z,0.00
2023-01-06T01:50:47.740Z,0.00
2023-01-06T01:51:47.701Z,0.00
2023-01-06T01:52:47.685Z,0.00
2023-01-06T01:53:47.787Z,0.00
2023-01-06T01:54:47.892Z,0.00
2023-01-06T01:55:47.715Z,0.00
2023-01-06T01:56:47.654Z,0.00
2023-01-06T01:57:47.825Z,0.00
2023-01-06T01:58:47.613Z,0.00
2023-01-06T01:59:47.634Z,0.00
2023-01-06T02:00:47.625Z,0.00
2023-01-06T02:01:47.714Z,0.00
2023-01-06T02:02:47.637Z,0.00
2023-01-06T02:03:47.768Z,0.00
2023-01-06T02:04:47.552Z,0.00
2023-01-06T02:05:47.744Z,0.00
2023-01-06T02:06:47.570Z,0.00
2023-01-06T02:07:47.752Z,0.00
2023-01-06T02:08:47.523Z,0.00
2023-01-06T02:09:47.624Z,0.00
2023-01-06T02:10:47.491Z,0.00
2023-01-06T02:11:47.596Z,0.00
2023-01-06T02:12:47.493Z,0.00
2023-01-06T02:13:47.488Z,0.00
2023-01-06T02:14:47.430Z,0.00
2023-01-06T02:15:47.443Z,0.00
2023-01-06T02:16:47.409Z,0.00
2023-01-06T02:17:47.441Z,0.00
2023-01-06T02:18:47.407Z,0.00
2023-01-06T02:19:47.412Z,0.00
2023-01-06T02:20:47.403Z,0.00
2023-01-06T02:21:47.374Z,0.00
2023-01-06T02:22:47.398Z,0.00
2023-01-06T02:23:47.349Z,0.00
2023-01-06T02:24:47.385Z,0.00
2023-01-06T02:25:47.441Z,0.00
2023-01-06T02:26:47.331Z,0.00
2023-01-06T02:27:47.306Z,0.00
2023-01-06T02:28:47.300Z,0.00
2023-01-06T02:29:47.296Z,0.00
2023-01-06T02:30:47.279Z,0.00
2023-01-06T02:31:47.285Z,0.00
2023-01-06T02:32:47.242Z,0.00
2023-01-06T02:33:47.252Z,0.00
2023-01-06T02:34:47.262Z,0.00
2023-01-06T02:35:47.430Z,0.00
2023-01-06T02:36:47.210Z,0.00
2023-01-06T02:37:47.212Z,0.00
2023-01-06T02:38:47.178Z,0.00
2023-01-06T02:39:47.188Z,0.00
2023-01-06T02:40:47.174Z,0.00
2023-01-06T02:41:47.288Z,0.00
2023-01-06T02:42:47.134Z,0.00
2023-01-06T02:43:47.208Z,0.00
2023-01-06T02:44:47.135Z,0.00
2023-01-06T02:45:47.355Z,0.00
2023-01-06T02:46:47.139Z,0.00
2023-01-06T02:47:47.130Z,0.00
2023-01-06T02:48:47.090Z,0.00
2023-01-06T02:49:47.089Z,0.00
2023-01-06T02:50:47.066Z,0.00
2023-01-06T02:51:47.116Z,0.00
2023-01-06T02:52:47.068Z,0.00
2023-01-06T02:53:47.036Z,0.00
2023-01-06T02:54:47.025Z,0.00
2023-01-06T02:55:47.036Z,0.00
2023-01-06T02:56:47.012Z,0.00
2023-01-06T02:57:47.105Z,0.00
2023-01-06T02:58:46.970Z,0.00
2023-01-06T02:59:46.989Z,0.00
2023-01-06T03:00:46.996Z,0.00
2023-01-06T03:01:47.042Z,0.00
2023-01-06T03:02:46.987Z,0.00
2023-01-06T03:03:47.114Z,0.00
2023-01-06T03:04:46.947Z,0.00
2023-01-06T03:05:46.945Z,0.00
2023-01-06T03:06:46.930Z,0.00
2023-01-06T03:07:46.904Z,0.00
2023-01-06T03:08:46.887Z,0.00
2023-01-06T03:09:46.877Z,0.00
2023-01-06T03:10:46.857Z,0.00
2023-01-06T03:11:46.847Z,0.00
2023-01-06T03:12:46.827Z,0.00
2023-01-06T03:13:46.924Z,0.00
2023-01-06T03:14:46.806Z,0.00
2023-01-06T03:15:47.015Z,0.00
2023-01-06T03:16:46.789Z,0.00
2023-01-06T03:17:46.767Z,0.00
2023-01-06T03:18:46.747Z,0.00
2023-01-06T03:19:46.734Z,0.00
2023-01-06T03:20:46.719Z,0.00
2023-01-06T03:21:46.729Z,0.00
2023-01-06T03:22:46.737Z,0.00
2023-01-06T03:23:46.728Z,0.00
2023-01-06T03:24:46.752Z,0.00
2023-01-06T03:25:46.693Z,0.00
2023-01-06T03:26:46.661Z,0.00
2023-01-06T03:27:46.658Z,0.00
2023-01-06T03:28:46.649Z,0.00
2023-01-06T03:29:46.758Z,0.00
2023-01-06T03:30:46.627Z,0.00
2023-01-06T03:31:46.615Z,0.00
2023-01-06T03:32:46.604Z,0.00
2023-01-06T03:33:46.599Z,0.00
2023-01-06T03:34:46.580Z,0.00
2023-01-06T03:35:46.576Z,0.00
2023-01-06T03:36:46.550Z,0.00
2023-01-06T03:37:46.551Z,0.00
2023-01-06T03:38:46.551Z,0.00
2023-01-06T03:39:46.527Z,0.00
2023-01-06T03:40:46.560Z,0.00
2023-01-06T03:41:46.538Z,0.00
2023-01-06T03:42:46.502Z,0.00
2023-01-06T03:43:46.520Z,0.00
2023-01-06T03:44:46.475Z,0.00
2023-01-06T03:45:46.577Z,0.00
2023-01-06T03:46:46.508Z,0.00
2023-01-06T03:47:46.486Z,0.00
2023-01-06T03:48:46.448Z,0.00
2023-01-06T03:49:46.438Z,0.00
2023-01-06T03:50:46.428Z,0.00
2023-01-06T03:51:46.450Z,0.00
2023-01-06T03:52:46.623Z,0.00
2023-01-06T03:53:46.401Z,0.00
2023-01-06T03:54:46.381Z,0.00
2023-01-06T03:55:46.378Z,0.00
2023-01-06T03:56:46.353Z,0.00
2023-01-06T03:57:46.391Z,0.00
2023-01-06T03:58:46.349Z,0.00
2023-01-06T03:59:46.524Z,0.00
2023-01-06T04:00:46.373Z,0.00
2023-01-06T04:01:46.948Z,0.00
2023-01-06T04:02:46.276Z,0.00
2023-01-06T04:03:46.291Z,0.00
2023-01-06T04:04:46.268Z,0.00
2023-01-06T04:05:46.662Z,0.00
2023-01-06T04:06:46.252Z,0.00
2023-01-06T04:07:46.236Z,0.00
2023-01-06T04:08:46.220Z,0.00
2023-01-06T04:09:46.235Z,0.00
2023-01-06T04:10:46.199Z,0.00
2023-01-06T04:11:46.416Z,0.00
2023-01-06T04:12:46.609Z,0.00
2023-01-06T04:13:46.178Z,0.00
2023-01-06T04:14:46.155Z,0.00
2023-01-06T04:15:46.158Z,0.00
2023-01-06T04:16:46.145Z,0.00
2023-01-06T04:17:46.238Z,0.00
2023-01-06T04:18:46.112Z,0.00
2023-01-06T04:19:46.120Z,0.00
2023-01-06T04:20:46.096Z,0.00
2023-01-06T04:21:46.085Z,0.00
2023-01-06T04:22:46.088Z,0.00
2023-01-06T04:23:46.070Z,0.00
2023-01-06T04:24:46.091Z,0.00
2023-01-06T04:25:46.063Z,0.00
2023-01-06T04:26:46.037Z,0.00
2023-01-06T04:27:46.033Z,0.00
2023-01-06T04:28:46.093Z,0.00
2023-01-06T04:29:46.033Z,0.00
2023-01-06T04:30:45.993Z,0.00
2023-01-06T04:31:46.064Z,0.00
2023-01-06T04:32:45.979Z,0.00
2023-01-06T04:33:46.079Z,0.00
2023-01-06T04:34:45.931Z,0.00
2023-01-06T04:35:45.933Z,0.00
2023-01-06T04:36:46.147Z,0.00
2023-01-06T04:37:45.919Z,0.00
2023-01-06T04:38:45.935Z,0.00
2023-01-06T04:39:45.900Z,0.00
2023-01-06T04:40:45.928Z,0.00
2023-01-06T04:41:46.130Z,0.00
2023-01-06T04:42:46.080Z,0.00
2023-01-06T04:43:45.881Z,0.00
2023-01-06T04:44:45.886Z,0.00
2023-01-06T04:45:45.861Z,0.00
2023-01-06T04:46:45.859Z,0.00
2023-01-06T04:47:45.820Z,0.00
2023-01-06T04:48:45.827Z,0.00
2023-01-06T04:49:45.902Z,0.00
2023-01-06T04:50:45.812Z,0.00
2023-01-06T04:51:45.758Z,0.00
2023-01-06T04:52:45.751Z,0.00
2023-01-06T04:53:45.773Z,0.00
2023-01-06T04:54:45.784Z,0.00
2023-01-06T04:55:45.733Z,0.00
2023-01-06T04:56:45.718Z,0.00
2023-01-06T04:57:45.735Z,0.00
2023-01-06T04:58:45.695Z,0.00
2023-01-06T04:59:45.702Z,0.00
2023-01-06T05:00:45.723Z,0.00
2023-01-06T05:01:45.724Z,0.00
2023-01-06T05:02:45.649Z,0.00
2023-01-06T05:03:45.682Z,0.00
2023-01-06T05:04:47.946Z,0.00
2023-01-06T05:05:45.751Z,0.00
2023-01-06T05:06:45.619Z,0.00
2023-01-06T05:07:45.608Z,0.00
2023-01-06T05:08:45.623Z,0.00
2023-01-06T05:09:45.777Z,0.00
2023-01-06T05:10:45.596Z,0.00
2023-01-06T05:11:45.555Z,0.00
2023-01-06T05:12:45.759Z,0.00
2023-01-06T05:13:45.535Z,0.00
2023-01-06T05:14:45.531Z,0.00
2023-01-06T05:15:45.520Z,0.00
2023-01-06T05:16:45.576Z,0.00
2023-01-06T05:17:45.521Z,0.00
2023-01-06T05:18:45.509Z,0.00
2023-01-06T05:19:45.514Z,0.00
2023-01-06T05:20:45.459Z,0.00
2023-01-06T05:21:45.645Z,0.00
2023-01-06T05:22:45.453Z,0.00
2023-01-06T05:23:45.643Z,0.00
2023-01-06T05:24:45.463Z,0.00
2023-01-06T05:25:45.410Z,0.00
2023-01-06T05:26:45.593Z,0.00
2023-01-06T05:27:45.403Z,0.00
2023-01-06T05:28:45.432Z,0.00
2023-01-06T05:29:45.429Z,0.00
2023-01-06T05:30:45.370Z,0.00
2023-01-06T05:31:45.401Z,0.00
2023-01-06T05:32:45.336Z,0.00
2023-01-06T05:33:45.385Z,0.00
2023-01-06T05:34:45.316Z,0.00
2023-01-06T05:35:45.360Z,0.00
2023-01-06T05:36:45.575Z,0.00
2023-01-06T05:37:45.607Z,0.00
2023-01-06T05:38:45.291Z,0.00
2023-01-06T05:39:45.287Z,0.00
2023-01-06T05:40:45.269Z,0.00
2023-01-06T05:41:45.446Z,0.00
2023-01-06T05:42:45.222Z,0.00
2023-01-06T05:43:45.328Z,0.00
2023-01-06T05:44:45.288Z,0.00
2023-01-06T05:45:45.258Z,0.00
2023-01-06T05:46:46.234Z,0.00
2023-01-06T05:47:45.195Z,0.00
2023-01-06T05:48:45.207Z,0.00
2023-01-06T05:49:46.842Z,0.00
2023-01-06T05:50:45.166Z,0.00
2023-01-06T05:51:45.154Z,0.00
2023-01-06T05:52:45.147Z,0.00
2023-01-06T05:53:45.377Z,0.00
2023-01-06T05:54:45.105Z,0.00
2023-01-06T05:55:45.090Z,0.00
2023-01-06T05:56:45.087Z,0.00
2023-01-06T05:57:45.112Z,0.00
2023-01-06T05:58:45.126Z,0.00
2023-01-06T05:59:45.073Z,0.00
2023-01-06T06:00:45.073Z,0.00
2023-01-06T06:01:45.150Z,0.00
2023-01-06T06:02:45.043Z,0.00
2023-01-06T06:03:45.172Z,0.00
2023-01-06T06:04:45.025Z,0.00
2023-01-06T06:05:45.090Z,0.00
2023-01-06T06:06:45.058Z,0.00
2023-01-06T06:07:44.976Z,0.00
2023-01-06T06:08:45.044Z,0.00
2023-01-06T06:09:45.061Z,0.00
2023-01-06T06:10:44.964Z,0.00
2023-01-06T06:11:44.944Z,0.00
2023-01-06T06:12:44.917Z,0.00
2023-01-06T06:13:45.132Z,0.00
2023-01-06T06:14:44.919Z,0.00
2023-01-06T06:15:45.135Z,0.00
2023-01-06T06:16:44.940Z,0.00
2023-01-06T06:17:44.906Z,0.00
2023-01-06T06:18:44.888Z,0.00
2023-01-06T06:19:44.881Z,0.00
2023-01-06T06:20:44.890Z,0.00
2023-01-06T06:21:44.854Z,0.00
2023-01-06T06:22:44.852Z,0.00
2023-01-06T06:23:44.837Z,0.00
2023-01-06T06:24:44.857Z,0.00
2023-01-06T06:25:44.938Z,0.00
2023-01-06T06:26:44.813Z,0.00
2023-01-06T06:27:44.780Z,0.00
2023-01-06T06:28:44.766Z,0.00
2023-01-06T06:29:44.749Z,0.00
2023-01-06T06:30:44.761Z,0.00
2023-01-06T06:31:45.042Z,0.00
2023-01-06T06:32:44.900Z,0.00
2023-01-06T06:33:44.721Z,0.00
2023-01-06T06:34:44.706Z,0.00
2023-01-06T06:35:44.751Z,0.00
2023-01-06T06:36:44.689Z,0.00
2023-01-06T06:37:44.657Z,0.00
2023-01-06T06:38:44.719Z,0.00
2023-01-06T06:39:44.690Z,0.00
2023-01-06T06:40:44.633Z,0.00
2023-01-06T06:41:44.751Z,0.00
2023-01-06T06:42:44.627Z,0.00
2023-01-06T06:43:44.611Z,0.00
2023-01-06T06:44:44.611Z,0.00
2023-01-06T06:45:44.650Z,0.00
2023-01-06T06:46:45.009Z,0.00
2023-01-06T06:47:44.589Z,0.00
2023-01-06T06:48:44.584Z,0.00
2023-01-06T06:49:44.540Z,0.00
2023-01-06T06:50:44.558Z,0.00
2023-01-06T06:51:44.509Z,0.00
2023-01-06T06:52:44.529Z,0.00
2023-01-06T06:53:44.512Z,0.00
2023-01-06T06:54:44.711Z,4.00
2023-01-06T06:55:44.483Z,4.00
2023-01-06T06:56:44.462Z,0.00
2023-01-06T06:57:44.588Z,4.00
2023-01-06T06:58:44.453Z,4.00
2023-01-06T06:59:44.448Z,4.00
2023-01-06T07:00:44.428Z,4.00
2023-01-06T07:01:44.573Z,8.00
2023-01-06T07:02:44.653Z,4.00
2023-01-06T07:03:44.588Z,4.00
2023-01-06T07:04:44.435Z,4.00
2023-01-06T07:05:44.376Z,4.00
2023-01-06T07:06:44.390Z,4.00
2023-01-06T07:07:44.367Z,8.00
2023-01-06T07:08:44.355Z,8.00
2023-01-06T07:09:44.775Z,12.00
2023-01-06T07:10:44.336Z,12.00
2023-01-06T07:11:44.358Z,8.00
2023-01-06T07:12:44.296Z,12.00
2023-01-06T07:13:44.416Z,16.00
2023-01-06T07:14:44.272Z,20.00
2023-01-06T07:15:44.280Z,20.00
2023-01-06T07:16:44.250Z,20.00
2023-01-06T07:17:44.269Z,28.00
2023-01-06T07:18:44.249Z,32.00
2023-01-06T07:19:44.220Z,32.00
2023-01-06T07:20:44.636Z,40.00
2023-01-06T07:21:44.216Z,44.00
2023-01-06T07:22:44.191Z,52.00
2023-01-06T07:23:44.222Z,52.00
2023-01-06T07:24:44.430Z,60.00
2023-01-06T07:25:44.161Z,64.00
2023-01-06T07:26:44.158Z,72.00
2023-01-06T07:27:44.153Z,68.00
2023-01-06T07:28:44.145Z,72.00
2023-01-06T07:29:44.812Z,80.00
2023-01-06T07:30:44.137Z,92.00
2023-01-06T07:31:44.099Z,100.00
2023-01-06T07:32:44.134Z,104.00
2023-01-06T07:33:44.131Z,108.00
2023-01-06T07:34:44.073Z,116.00
2023-01-06T07:35:44.462Z,124.00
2023-01-06T07:36:44.045Z,124.00
2023-01-06T07:37:44.041Z,140.00
2023-01-06T07:38:44.035Z,156.00
2023-01-06T07:39:44.212Z,168.00
2023-01-06T07:40:44.057Z,180.00
2023-01-06T07:41:44.017Z,172.00
2023-01-06T07:42:44.038Z,168.00
2023-01-06T07:43:43.994Z,164.00
2023-01-06T07:44:44.196Z,164.00
2023-01-06T07:45:44.147Z,172.00
2023-01-06T07:46:43.939Z,188.00
2023-01-06T07:47:43.958Z,200.00
2023-01-06T07:48:43.938Z,204.00
2023-01-06T07:49:43.920Z,204.00
2023-01-06T07:50:43.942Z,212.00
2023-01-06T07:51:43.926Z,208.00
2023-01-06T07:52:43.891Z,204.00
2023-01-06T07:53:43.878Z,200.00
2023-01-06T07:54:43.868Z,200.00
2023-01-06T07:55:43.876Z,200.00
2023-01-06T07:56:43.839Z,212.00
2023-01-06T07:57:43.840Z,216.00
2023-01-06T07:58:43.972Z,236.00
2023-01-06T07:59:43.817Z,252.00
2023-01-06T08:00:43.870Z,272.00
2023-01-06T08:01:44.188Z,324.00
2023-01-06T08:02:43.950Z,404.00
2023-01-06T08:03:43.938Z,516.00
2023-01-06T08:04:43.759Z,620.00
2023-01-06T08:05:43.751Z,816.00
2023-01-06T08:06:43.766Z,1368.00
2023-01-06T08:07:43.761Z,1812.00
2023-01-06T08:08:43.722Z,3076.00
2023-01-06T08:09:43.722Z,3680.00
2023-01-06T08:10:43.711Z,3272.00
2023-01-06T08:11:43.687Z,1340.00
2023-01-06T08:12:43.684Z,948.00
2023-01-06T08:13:44.087Z,1132.00
2023-01-06T08:14:43.858Z,1496.00
2023-01-06T08:15:43.686Z,1792.00
2023-01-06T08:16:43.656Z,1804.00
2023-01-06T08:17:43.758Z,1560.00
2023-01-06T08:18:43.675Z,1280.00
2023-01-06T08:19:43.823Z,1064.00
2023-01-06T08:20:43.608Z,888.00
2023-01-06T08:21:43.593Z,708.00
2023-01-06T08:22:43.589Z,580.00
2023-01-06T08:23:43.572Z,492.00
2023-01-06T08:24:43.567Z,404.00
2023-01-06T08:25:43.553Z,348.00
2023-01-06T08:26:43.561Z,308.00
2023-01-06T08:27:43.544Z,296.00
2023-01-06T08:28:43.522Z,292.00
2023-01-06T08:29:43.518Z,296.00
2023-01-06T08:30:43.547Z,312.00
2023-01-06T08:31:43.704Z,316.00
2023-01-06T08:32:43.481Z,312.00
2023-01-06T08:33:43.659Z,324.00
2023-01-06T08:34:43.512Z,328.00
2023-01-06T08:35:43.482Z,304.00
2023-01-06T08:36:43.644Z,296.00
2023-01-06T08:37:43.480Z,280.00
2023-01-06T08:38:43.420Z,272.00
2023-01-06T08:39:43.406Z,256.00
2023-01-06T08:40:43.406Z,248.00
2023-01-06T08:41:43.387Z,248.00
2023-01-06T08:42:43.382Z,256.00
2023-01-06T08:43:44.959Z,260.00
2023-01-06T08:44:43.596Z,268.00
2023-01-06T08:45:43.570Z,284.00
2023-01-06T08:46:43.407Z,300.00
2023-01-06T08:47:43.336Z,312.00
2023-01-06T08:48:43.328Z,324.00
2023-01-06T08:49:43.658Z,360.00
2023-01-06T08:50:43.340Z,360.00
2023-01-06T08:51:43.347Z,356.00
2023-01-06T08:52:43.313Z,376.00
2023-01-06T08:53:43.289Z,392.00
2023-01-06T08:54:43.295Z,428.00
2023-01-06T08:55:43.299Z,408.00
2023-01-06T08:56:43.277Z,388.00
2023-01-06T08:57:43.248Z,388.00
2023-01-06T08:58:43.238Z,384.00
2023-01-06T08:59:43.230Z,396.00
2023-01-06T09:00:43.212Z,428.00
2023-01-06T09:01:43.390Z,476.00
2023-01-06T09:02:43.194Z,516.00
2023-01-06T09:03:43.465Z,524.00
2023-01-06T09:04:43.210Z,520.00
2023-01-06T09:05:43.333Z,500.00
2023-01-06T09:06:43.154Z,496.00
2023-01-06T09:07:43.181Z,488.00
2023-01-06T09:08:43.140Z,472.00
2023-01-06T09:09:43.119Z,440.00
2023-01-06T09:10:43.126Z,396.00
2023-01-06T09:11:43.108Z,364.00
2023-01-06T09:12:43.088Z,336.00
2023-01-06T09:13:43.092Z,320.00
2023-01-06T09:14:43.101Z,316.00
2023-01-06T09:15:43.079Z,316.00
2023-01-06T09:16:43.052Z,332.00
2023-01-06T09:17:43.046Z,344.00
2023-01-06T09:18:43.232Z,360.00
2023-01-06T09:19:43.058Z,364.00
2023-01-06T09:20:43.007Z,360.00
2023-01-06T09:21:43.140Z,356.00
2023-01-06T09:22:43.037Z,368.00
2023-01-06T09:23:43.032Z,380.00
2023-01-06T09:24:42.991Z,392.00
2023-01-06T09:25:42.992Z,412.00
2023-01-06T09:26:42.985Z,464.00
2023-01-06T09:27:43.190Z,552.00
2023-01-06T09:28:43.010Z,600.00
2023-01-06T09:29:42.937Z,620.00
2023-01-06T09:30:42.927Z,652.00
2023-01-06T09:31:42.926Z,720.00
2023-01-06T09:32:42.916Z,712.00
2023-01-06T09:33:42.955Z,760.00
2023-01-06T09:34:42.906Z,756.00
2023-01-06T09:35:43.069Z,792.00
2023-01-06T09:36:42.886Z,780.00
2023-01-06T09:37:42.981Z,824.00
2023-01-06T09:38:42.884Z,916.00
2023-01-06T09:39:42.853Z,932.00
2023-01-06T09:40:42.839Z,880.00
2023-01-06T09:41:42.863Z,908.00
2023-01-06T09:42:42.838Z,860.00
2023-01-06T09:43:42.791Z,816.00
2023-01-06T09:44:42.794Z,804.00
2023-01-06T09:45:42.799Z,760.00
2023-01-06T09:46:43.288Z,716.00
2023-01-06T09:47:42.778Z,680.00
2023-01-06T09:48:42.753Z,644.00
2023-01-06T09:49:42.740Z,652.00
2023-01-06T09:50:42.727Z,668.00
2023-01-06T09:51:42.740Z,684.00
2023-01-06T09:52:42.733Z,724.00
2023-01-06T09:53:42.883Z,816.00
2023-01-06T09:54:42.720Z,840.00
2023-01-06T09:55:42.720Z,812.00
2023-01-06T09:56:42.692Z,720.00
2023-01-06T09:57:42.683Z,632.00
2023-01-06T09:58:42.885Z,560.00
2023-01-06T09:59:42.655Z,528.00
2023-01-06T10:00:42.907Z,524.00
2023-01-06T10:01:42.934Z,488.00
2023-01-06T10:02:42.613Z,480.00
2023-01-06T10:03:42.634Z,520.00
2023-01-06T10:04:42.618Z,504.00
2023-01-06T10:05:42.637Z,516.00
2023-01-06T10:06:42.583Z,520.00
2023-01-06T10:07:42.582Z,540.00
2023-01-06T10:08:42.587Z,520.00
2023-01-06T10:09:42.687Z,508.00
2023-01-06T10:10:42.736Z,560.00
2023-01-06T10:11:42.537Z,636.00
2023-01-06T10:12:42.567Z,764.00
2023-01-06T10:13:42.539Z,896.00
2023-01-06T10:14:42.506Z,1048.00
2023-01-06T10:15:42.509Z,1212.00
2023-01-06T10:16:42.480Z,1136.00
2023-01-06T10:17:42.515Z,1044.00
2023-01-06T10:18:42.508Z,1092.00
2023-01-06T10:19:42.481Z,1180.00
2023-01-06T10:20:42.452Z,1336.00
2023-01-06T10:21:42.457Z,1484.00
2023-01-06T10:22:42.468Z,1692.00
2023-01-06T10:23:42.426Z,2000.00
2023-01-06T10:24:42.418Z,2192.00
2023-01-06T10:25:42.512Z,2252.00
2023-01-06T10:26:42.399Z,2256.00
2023-01-06T10:27:42.409Z,2232.00
2023-01-06T10:28:42.391Z,1764.00
2023-01-06T10:29:42.384Z,1644.00
2023-01-06T10:30:44.328Z,1132.00
2023-01-06T10:31:42.453Z,980.00
2023-01-06T10:32:42.969Z,856.00
2023-01-06T10:33:42.374Z,828.00
2023-01-06T10:34:42.332Z,756.00
2023-01-06T10:35:42.509Z,832.00
2023-01-06T10:36:42.298Z,1244.00
2023-01-06T10:37:42.323Z,2056.00
2023-01-06T10:38:42.303Z,3248.00
2023-01-06T10:39:42.461Z,2616.00
2023-01-06T10:40:42.256Z,2896.00
2023-01-06T10:41:42.366Z,3152.00
2023-01-06T10:42:42.257Z,3568.00
2023-01-06T10:43:42.344Z,4044.00
2023-01-06T10:44:42.224Z,3456.00
2023-01-06T10:45:42.203Z,2656.00
2023-01-06T10:46:42.248Z,2396.00
2023-01-06T10:47:42.303Z,1996.00
2023-01-06T10:48:42.213Z,1700.00
2023-01-06T10:49:42.202Z,1664.00
2023-01-06T10:50:42.180Z,1968.00
2023-01-06T10:51:42.159Z,1992.00
2023-01-06T10:52:42.148Z,1972.00
2023-01-06T10:53:42.434Z,1996.00
2023-01-06T10:54:42.392Z,1792.00
2023-01-06T10:55:42.135Z,1568.00
2023-01-06T10:56:42.321Z,1332.00
2023-01-06T10:57:42.303Z,1164.00
2023-01-06T10:58:42.127Z,1040.00
2023-01-06T10:59:42.102Z,900.00
2023-01-06T11:00:42.181Z,972.00
2023-01-06T11:01:42.318Z,1056.00
2023-01-06T11:02:42.314Z,1112.00
2023-01-06T11:03:42.144Z,1120.00
2023-01-06T11:04:42.044Z,960.00
2023-01-06T11:05:42.060Z,820.00
2023-01-06T11:06:42.034Z,728.00
2023-01-06T11:07:42.162Z,676.00
2023-01-06T11:08:42.008Z,684.00
2023-01-06T11:09:42.054Z,636.00
2023-01-06T11:10:42.019Z,600.00
2023-01-06T11:11:41.966Z,616.00
2023-01-06T11:12:42.008Z,536.00
2023-01-06T11:13:42.086Z,524.00
2023-01-06T11:14:41.956Z,528.00
2023-01-06T11:15:41.938Z,548.00
2023-01-06T11:16:41.977Z,528.00
2023-01-06T11:17:41.919Z,476.00
2023-01-06T11:18:41.902Z,480.00
2023-01-06T11:19:41.915Z,508.00
2023-01-06T11:20:41.896Z,504.00
2023-01-06T11:21:41.883Z,516.00
2023-01-06T11:22:41.897Z,504.00
2023-01-06T11:23:41.955Z,516.00
2023-01-06T11:24:41.851Z,484.00
2023-01-06T11:25:41.853Z,456.00
2023-01-06T11:26:41.851Z,468.00
2023-01-06T11:27:41.877Z,456.00
2023-01-06T11:28:41.824Z,412.00
2023-01-06T11:29:42.004Z,440.00
2023-01-06T11:30:41.826Z,488.00
2023-01-06T11:31:41.825Z,500.00
2023-01-06T11:32:41.810Z,520.00
2023-01-06T11:33:41.785Z,504.00
2023-01-06T11:34:41.977Z,552.00
2023-01-06T11:35:41.976Z,588.00
2023-01-06T11:36:41.771Z,568.00
2023-01-06T11:37:41.734Z,532.00
2023-01-06T11:38:41.844Z,504.00
2023-01-06T11:39:42.087Z,548.00
2023-01-06T11:40:41.754Z,612.00
2023-01-06T11:41:41.698Z,660.00
2023-01-06T11:43:41.717Z,764.00
2023-01-06T11:44:41.770Z,1024.00
2023-01-06T11:45:42.065Z,1196.00
2023-01-06T11:46:41.663Z,1448.00
2023-01-06T11:47:41.651Z,1552.00
2023-01-06T11:48:41.663Z,1692.00
2023-01-06T11:49:41.635Z,1820.00
2023-01-06T11:50:41.620Z,1760.00
2023-01-06T11:51:41.630Z,1704.00
2023-01-06T11:52:41.605Z,1776.00
2023-01-06T11:53:41.583Z,1768.00
2023-01-06T11:54:41.586Z,2004.00
2023-01-06T11:55:41.572Z,2056.00
2023-01-06T11:56:41.791Z,2076.00
2023-01-06T11:57:41.560Z,2104.00
2023-01-06T11:58:41.549Z,2144.00
2023-01-06T11:59:41.580Z,2036.00
2023-01-06T12:00:41.541Z,2120.00
2023-01-06T12:01:41.791Z,2080.00
2023-01-06T12:02:41.557Z,2004.00
2023-01-06T12:03:41.875Z,2936.00
2023-01-06T12:04:41.533Z,2348.00
2023-01-06T12:05:41.523Z,1884.00
2023-01-06T12:06:41.478Z,1896.00
2023-01-06T12:07:41.504Z,1940.00
2023-01-06T12:08:41.462Z,1892.00
2023-01-06T12:09:42.603Z,1884.00
2023-01-06T12:10:41.455Z,2008.00
2023-01-06T12:11:41.430Z,2052.00
2023-01-06T12:12:41.412Z,2108.00
2023-01-06T12:13:44.896Z,2452.00
2023-01-06T12:14:41.421Z,2664.00
2023-01-06T12:15:41.395Z,2772.00
2023-01-06T12:16:41.543Z,2748.00
2023-01-06T12:17:41.632Z,2860.00
2023-01-06T12:18:41.362Z,2772.00
2023-01-06T12:19:41.384Z,2720.00
2023-01-06T12:20:41.552Z,2552.00
2023-01-06T12:21:41.363Z,2456.00
2023-01-06T12:22:41.363Z,2428.00
2023-01-06T12:23:41.536Z,2368.00
2023-01-06T12:24:41.313Z,2292.00
2023-01-06T12:25:41.287Z,2076.00
2023-01-06T12:26:41.298Z,1964.00
2023-01-06T12:27:41.309Z,1944.00
2023-01-06T12:28:41.329Z,2024.00
2023-01-06T12:29:41.479Z,2152.00
2023-01-06T12:30:41.563Z,2168.00
2023-01-06T12:31:41.277Z,2124.00
2023-01-06T12:32:41.225Z,2176.00
2023-01-06T12:33:41.343Z,2100.00
2023-01-06T12:34:41.232Z,1992.00
2023-01-06T12:35:41.235Z,1760.00
2023-01-06T12:36:41.416Z,1664.00
2023-01-06T12:37:41.232Z,1608.00
2023-01-06T12:38:41.186Z,1640.00
2023-01-06T12:39:41.175Z,1808.00
2023-01-06T12:40:41.178Z,1772.00
2023-01-06T12:41:41.163Z,1812.00
2023-01-06T12:42:41.190Z,1780.00
2023-01-06T12:43:41.350Z,1624.00
2023-01-06T12:44:41.334Z,1404.00
2023-01-06T12:45:43.482Z,1292.00
2023-01-06T12:46:41.154Z,1252.00
2023-01-06T12:47:41.090Z,1312.00
2023-01-06T12:48:41.217Z,1424.00
2023-01-06T12:49:41.141Z,1536.00
2023-01-06T12:50:41.302Z,1652.00
2023-01-06T12:51:41.050Z,1720.00
2023-01-06T12:52:41.115Z,1692.00
2023-01-06T12:53:41.280Z,1512.00